Time;durP1;ratioP1;P1;durP2;ratioP2;P2;SDS_P1;SDS_P2;PMS_P1;PMS_P2;Temp;Humidity;BMP_temperature;BMP_pressure;BME280_temperature;BME280_humidity;BME280_pressure;Samples;Min_cycle;Max_cycle;Signal;HPM_P1;HPM_P2
2023/07/24 00:01:25;;;;;;;;;;;;;;;;;;5046416;28;5118;-61
2023/07/24 00:03:51;;;;;;;;;;;;;;;;;;5049002;28;5122;-60
2023/07/24 00:06:16;;;;;;;;;;;;;;;;;;5049645;28;5722;-60
2023/07/24 00:08:41;;;;;;;;;;;;;;;;;;5050543;28;1113;-60
2023/07/24 00:11:07;;;;;;;;;;;;;;;;;;5049115;28;5062;-60
2023/07/24 00:13:32;;;;;;;;;;;;;;;;;;5049869;28;4931;-61
2023/07/24 00:15:58;;;;;;;;;;;;;;;;;;5049409;28;4932;-61
2023/07/24 00:18:23;;;;;;;;;;;;;;;;;;5049054;28;5121;-61
2023/07/24 00:20:48;;;;;;;;;;;;;;;;;;5049882;28;1190;-61
2023/07/24 00:23:13;;;;;;;;;;;;;;;;;;5044373;28;4486;-60
2023/07/24 00:25:39;;;;;;;;;;;;;;;;;;5029448;28;5102;-60
2023/07/24 00:28:04;;;;;;;;;;;;;;;;;;5051962;28;5042;-60
2023/07/24 00:30:29;;;;;;;;;;;;;;;;;;5064119;28;4833;-60
2023/07/24 00:32:54;;;;;;;;;;;;;;;;;;5068687;28;4872;-60
2023/07/24 00:35:20;;;;;;;;;;;;;;;;;;5069986;28;1051;-60
2023/07/24 00:37:45;;;;;;;;;;;;;;;;;;5068611;28;4920;-61
2023/07/24 00:40:10;;;;;;;;;;;;;;;;;;5068285;28;4432;-61
2023/07/24 00:42:35;;;;;;;;;;;;;;;;;;5068544;28;5066;-61
2023/07/24 00:45:01;;;;;;;;;;;;;;;;;;5068719;28;5136;-61
2023/07/24 00:47:26;;;;;;;;;;;;;;;;;;5069552;28;1243;-61
2023/07/24 00:49:51;;;;;;;;;;;;;;;;;;5072328;28;5131;-61
2023/07/24 00:52:17;;;;;;;;;;;;;;;;;;5049021;28;4866;-61
2023/07/24 00:54:42;;;;;;;;;;;;;;;;;;5068626;28;4610;-61
2023/07/24 00:57:07;;;;;;;;;;;;;;;;;;5050097;28;4995;-61
2023/07/24 00:59:32;;;;;;;;;;;;;;;;;;5069122;28;1128;-61
2023/07/24 01:01:58;;;;;;;;;;;;;;;;;;5050223;28;5214;-61
2023/07/24 01:04:23;;;;;;;;;;;;;;;;;;5046317;28;4697;-61
2023/07/24 01:06:48;;;;;;;;;;;;;;;;;;5068544;28;4966;-61
2023/07/24 01:09:14;;;;;;;;;;;;;;;;;;5068158;28;5292;-61
2023/07/24 01:11:42;;;;;;;;;;;;;;;;;;5065518;28;1187;-61
2023/07/24 01:14:10;;;;;;;;;;;;;;;;;;5062486;28;4398;-61
2023/07/24 01:16:40;;;;;;;;;;;;;;;;;;5068986;28;5040;-61
2023/07/24 01:19:12;;;;;;;;;;;;;;;;;;5066646;28;4630;-61
2023/07/24 01:21:40;;;;;;;;;;;;;;;;;;5067186;28;5911;-61
2023/07/24 01:24:20;;;;;;;;;;;;;;;;;;5049590;28;5086;-61
2023/07/24 01:26:45;;;;;;;;;;;;;;;;;;5066507;28;1278;-61
2023/07/24 01:29:11;;;;;;;;;;;;;;;;;;5067813;28;4912;-61
2023/07/24 01:31:37;;;;;;;;;;;;;;;;;;5071339;28;5078;-61
2023/07/24 01:34:02;;;;;;;;;;;;;;;;;;5067256;28;5175;-61
2023/07/24 01:36:27;;;;;;;;;;;;;;;;;;5066668;28;4968;-61
2023/07/24 01:38:53;;;;;;;;;;;;;;;;;;5067730;28;4661;-60
2023/07/24 01:41:18;;;;;;;;;;;;;;;;;;5068102;28;1085;-61
2023/07/24 01:43:43;;;;;;;;;;;;;;;;;;5048686;28;5320;-61
2023/07/24 01:46:08;;;;;;;;;;;;;;;;;;5071143;28;4967;-61
2023/07/24 01:48:34;;;;;;;;;;;;;;;;;;5067592;28;4650;-61
2023/07/24 01:50:59;;;;;;;;;;;;;;;;;;5049753;28;4929;-61
2023/07/24 01:53:24;;;;;;;;;;;;;;;;;;5064646;28;1349;-61
2023/07/24 01:55:49;;;;;;;;;;;;;;;;;;5067777;28;5070;-61
2023/07/24 01:58:15;;;;;;;;;;;;;;;;;;5067457;28;4606;-61
2023/07/24 02:00:40;;;;;;;;;;;;;;;;;;5067645;28;5105;-61
2023/07/24 02:03:05;;;;;;;;;;;;;;;;;;5067321;28;4538;-61
2023/07/24 02:05:31;;;;;;;;;;;;;;;;;;5068019;28;1145;-61
2023/07/24 02:07:56;;;;;;;;;;;;;;;;;;5067140;28;5052;-61
2023/07/24 02:10:21;;;;;;;;;;;;;;;;;;5067451;28;5059;-61
2023/07/24 02:12:46;;;;;;;;;;;;;;;;;;5067893;28;5064;-61
2023/07/24 02:15:12;;;;;;;;;;;;;;;;;;5071404;28;5194;-61
2023/07/24 02:17:38;;;;;;;;;;;;;;;;;;5050049;28;1147;-60
2023/07/24 02:20:03;;;;;;;;;;;;;;;;;;5067551;28;5135;-60
2023/07/24 02:22:29;;;;;;;;;;;;;;;;;;5059704;28;5155;-59
2023/07/24 02:24:54;;;;;;;;;;;;;;;;;;5065621;28;4964;-60
2023/07/24 02:27:26;;;;;;;;;;;;;;;;;;5049679;28;4650;-59
2023/07/24 02:29:51;;;;;;;;;;;;;;;;;;5063341;28;5080;-58
2023/07/24 02:32:16;;;;;;;;;;;;;;;;;;5063033;28;4897;-59
2023/07/24 02:34:42;;;;;;;;;;;;;;;;;;5061937;28;4867;-60
2023/07/24 02:37:07;;;;;;;;;;;;;;;;;;5048983;28;5020;-60
2023/07/24 02:39:32;;;;;;;;;;;;;;;;;;5065699;28;5249;-60
2023/07/24 02:41:57;;;;;;;;;;;;;;;;;;5063960;28;5084;-59
2023/07/24 02:44:23;;;;;;;;;;;;;;;;;;5067642;28;1182;-60
2023/07/24 02:46:48;;;;;;;;;;;;;;;;;;5067575;28;4954;-60
2023/07/24 02:49:13;;;;;;;;;;;;;;;;;;5067056;28;5217;-60
2023/07/24 02:51:38;;;;;;;;;;;;;;;;;;5066503;28;5049;-60
2023/07/24 02:54:04;;;;;;;;;;;;;;;;;;5067082;28;4655;-60
2023/07/24 02:56:29;;;;;;;;;;;;;;;;;;5053735;28;1395;-59
2023/07/24 02:58:55;;;;;;;;;;;;;;;;;;5066970;28;4941;-60
2023/07/24 03:01:20;;;;;;;;;;;;;;;;;;5070826;28;4889;-60
2023/07/24 03:03:45;;;;;;;;;;;;;;;;;;5070608;28;5065;-60
2023/07/24 03:06:10;;;;;;;;;;;;;;;;;;5070154;28;5346;-59
2023/07/24 03:08:36;;;;;;;;;;;;;;;;;;5071457;28;1153;-59
2023/07/24 03:11:04;;;;;;;;;;;;;;;;;;5070817;28;4995;-60
2023/07/24 03:13:30;;;;;;;;;;;;;;;;;;5070648;28;5008;-59
2023/07/24 03:15:55;;;;;;;;;;;;;;;;;;5070188;28;4963;-60
2023/07/24 03:18:21;;;;;;;;;;;;;;;;;;5068762;28;5124;-59
2023/07/24 03:20:46;;;;;;;;;;;;;;;;;;5070800;28;1080;-59
2023/07/24 03:23:11;;;;;;;;;;;;;;;;;;5068823;28;5884;-60
2023/07/24 03:25:36;;;;;;;;;;;;;;;;;;5050567;28;5037;-60
2023/07/24 03:28:02;;;;;;;;;;;;;;;;;;5070041;28;5242;-60
2023/07/24 03:30:27;;;;;;;;;;;;;;;;;;5070040;28;4473;-59
2023/07/24 03:32:53;;;;;;;;;;;;;;;;;;5062632;28;5165;-60
2023/07/24 03:35:18;;;;;;;;;;;;;;;;;;5069580;28;1105;-60
2023/07/24 03:37:43;;;;;;;;;;;;;;;;;;5070320;28;5141;-60
2023/07/24 03:40:08;;;;;;;;;;;;;;;;;;5070096;28;5146;-60
2023/07/24 03:42:34;;;;;;;;;;;;;;;;;;5070193;28;5166;-61
2023/07/24 03:44:59;;;;;;;;;;;;;;;;;;5070130;28;5026;-60
2023/07/24 03:47:24;;;;;;;;;;;;;;;;;;5067141;28;3699;-61
2023/07/24 03:49:50;;;;;;;;;;;;;;;;;;5066058;28;4908;-60
2023/07/24 03:52:15;;;;;;;;;;;;;;;;;;5068120;28;5802;-59
2023/07/24 03:54:40;;;;;;;;;;;;;;;;;;5069700;28;4952;-59
2023/07/24 03:57:06;;;;;;;;;;;;;;;;;;5051446;28;5060;-58
2023/07/24 03:59:31;;;;;;;;;;;;;;;;;;5069844;28;1318;-59
2023/07/24 04:01:57;;;;;;;;;;;;;;;;;;5068107;28;4846;-59
2023/07/24 04:04:22;;;;;;;;;;;;;;;;;;5069564;28;5490;-59
2023/07/24 04:06:47;;;;;;;;;;;;;;;;;;5065344;28;4554;-59
2023/07/24 04:09:14;;;;;;;;;;;;;;;;;;5069195;28;5106;-59
2023/07/24 04:11:40;;;;;;;;;;;;;;;;;;5066824;28;3770;-59
2023/07/24 04:14:05;;;;;;;;;;;;;;;;;;5067996;28;4975;-59
2023/07/24 04:16:30;;;;;;;;;;;;;;;;;;5047836;28;5054;-59
2023/07/24 04:18:55;;;;;;;;;;;;;;;;;;5068150;28;4999;-59
2023/07/24 04:21:22;;;;;;;;;;;;;;;;;;5068680;28;5128;-59
2023/07/24 04:23:47;;;;;;;;;;;;;;;;;;5064983;28;1941;-59
2023/07/24 04:26:12;;;;;;;;;;;;;;;;;;5068682;28;4955;-59
2023/07/24 04:28:37;;;;;;;;;;;;;;;;;;5067628;28;5046;-59
2023/07/24 04:31:03;;;;;;;;;;;;;;;;;;5066046;28;5042;-59
2023/07/24 04:33:28;;;;;;;;;;;;;;;;;;5068719;28;5370;-59
2023/07/24 04:35:56;;;;;;;;;;;;;;;;;;5067618;28;5268;-58
2023/07/24 04:38:21;;;;;;;;;;;;;;;;;;5069364;28;1626;-59
2023/07/24 04:40:47;;;;;;;;;;;;;;;;;;5066452;28;5000;-59
2023/07/24 04:43:12;;;;;;;;;;;;;;;;;;5066311;28;4556;-59
2023/07/24 04:45:37;;;;;;;;;;;;;;;;;;5064430;28;4685;-59
2023/07/24 04:48:03;;;;;;;;;;;;;;;;;;5064232;28;4492;-60
2023/07/24 04:50:29;;;;;;;;;;;;;;;;;;5043690;28;4210;-60
2023/07/24 04:52:54;;;;;;;;;;;;;;;;;;5063328;28;4636;-59
2023/07/24 04:55:20;;;;;;;;;;;;;;;;;;5059278;28;5061;-59
2023/07/24 04:57:46;;;;;;;;;;;;;;;;;;5069293;28;4990;-59
2023/07/24 05:00:11;;;;;;;;;;;;;;;;;;5063663;28;5052;-59
2023/07/24 05:02:36;;;;;;;;;;;;;;;;;;5061766;28;3520;-59
2023/07/24 05:05:02;;;;;;;;;;;;;;;;;;5065886;28;5071;-59
2023/07/24 05:07:27;;;;;;;;;;;;;;;;;;5048739;28;4892;-60
2023/07/24 05:09:52;;;;;;;;;;;;;;;;;;5066568;28;5069;-59
2023/07/24 05:12:17;;;;;;;;;;;;;;;;;;5067539;28;4957;-59
2023/07/24 05:14:43;;;;;;;;;;;;;;;;;;5067649;28;1179;-59
2023/07/24 05:17:08;;;;;;;;;;;;;;;;;;5067439;28;4804;-59
2023/07/24 05:19:33;;;;;;;;;;;;;;;;;;5067204;28;5045;-60
2023/07/24 05:21:59;;;;;;;;;;;;;;;;;;5045047;28;4587;-60
2023/07/24 05:24:24;;;;;;;;;;;;;;;;;;5064780;28;4468;-60
2023/07/24 05:26:49;;;;;;;;;;;;;;;;;;5068297;28;1175;-60
2023/07/24 05:29:15;;;;;;;;;;;;;;;;;;5052384;28;5006;-60
2023/07/24 05:31:40;;;;;;;;;;;;;;;;;;5046368;28;5029;-60
2023/07/24 05:34:05;;;;;;;;;;;;;;;;;;5043368;28;5251;-58
2023/07/24 05:36:30;;;;;;;;;;;;;;;;;;5047683;28;5951;-59
2023/07/24 05:38:57;;;;;;;;;;;;;;;;;;5047610;28;5013;-60
2023/07/24 05:41:22;;;;;;;;;;;;;;;;;;5030439;28;1126;-59
2023/07/24 05:43:48;;;;;;;;;;;;;;;;;;5047825;28;5058;-60
2023/07/24 05:46:13;;;;;;;;;;;;;;;;;;5047352;28;5005;-60
2023/07/24 05:48:38;;;;;;;;;;;;;;;;;;5047141;28;5033;-60
2023/07/24 05:51:03;;;;;;;;;;;;;;;;;;5047574;28;5004;-59
2023/07/24 05:53:29;;;;;;;;;;;;;;;;;;5045707;28;1684;-60
2023/07/24 05:56:02;;;;;;;;;;;;;;;;;;5047353;28;5544;-59
2023/07/24 05:58:27;;;;;;;;;;;;;;;;;;5045711;28;4967;-60
2023/07/24 06:00:52;;;;;;;;;;;;;;;;;;5045293;28;5021;-60
2023/07/24 06:03:17;;;;;;;;;;;;;;;;;;5047402;28;5261;-60
2023/07/24 06:05:43;;;;;;;;;;;;;;;;;;5047197;28;3247;-60
2023/07/24 06:08:11;;;;;;;;;;;;;;;;;;5046658;28;4652;-59
2023/07/24 06:10:37;;;;;;;;;;;;;;;;;;5044818;28;5116;-59
2023/07/24 06:13:02;;;;;;;;;;;;;;;;;;5029312;28;5069;-59
2023/07/24 06:15:27;;;;;;;;;;;;;;;;;;5047143;28;5165;-59
2023/07/24 06:17:52;;;;;;;;;;;;;;;;;;5039995;28;5041;-60
2023/07/24 06:20:18;;;;;;;;;;;;;;;;;;5046584;28;3242;-59
2023/07/24 06:22:43;;;;;;;;;;;;;;;;;;5041053;28;4921;-59
2023/07/24 06:25:08;;;;;;;;;;;;;;;;;;5045780;28;5047;-59
2023/07/24 06:27:34;;;;;;;;;;;;;;;;;;5048774;28;4994;-59
2023/07/24 06:29:59;;;;;;;;;;;;;;;;;;5047283;28;5620;-58
2023/07/24 06:32:24;;;;;;;;;;;;;;;;;;5047602;28;5112;-59
2023/07/24 06:34:49;;;;;;;;;;;;;;;;;;5049728;28;5044;-58
2023/07/24 06:37:15;;;;;;;;;;;;;;;;;;5051047;28;4936;-59
2023/07/24 06:39:40;;;;;;;;;;;;;;;;;;5051661;28;5059;-59
2023/07/24 06:42:05;;;;;;;;;;;;;;;;;;5050648;28;4909;-59
2023/07/24 06:44:30;;;;;;;;;;;;;;;;;;5051378;28;1249;-59
2023/07/24 06:46:56;;;;;;;;;;;;;;;;;;5051090;28;5036;-59
2023/07/24 06:49:21;;;;;;;;;;;;;;;;;;5051404;28;4934;-60
2023/07/24 06:51:46;;;;;;;;;;;;;;;;;;5048489;28;5061;-59
2023/07/24 06:54:12;;;;;;;;;;;;;;;;;;5050862;28;4946;-61
2023/07/24 06:56:37;;;;;;;;;;;;;;;;;;5050419;28;1191;-53
2023/07/24 06:59:02;;;;;;;;;;;;;;;;;;5047442;28;5120;-55
2023/07/24 07:01:27;;;;;;;;;;;;;;;;;;5045500;28;4905;-59
2023/07/24 07:03:53;;;;;;;;;;;;;;;;;;5049952;28;5299;-57
2023/07/24 07:06:18;;;;;;;;;;;;;;;;;;5048121;28;4696;-57
2023/07/24 07:08:43;;;;;;;;;;;;;;;;;;5044764;28;3137;-55
2023/07/24 07:11:08;;;;;;;;;;;;;;;;;;5047163;28;4584;-57
2023/07/24 07:13:34;;;;;;;;;;;;;;;;;;5048118;28;5684;-55
2023/07/24 07:15:59;;;;;;;;;;;;;;;;;;5048394;28;5084;-55
2023/07/24 07:18:24;;;;;;;;;;;;;;;;;;5048327;28;5292;-56
2023/07/24 07:20:50;;;;;;;;;;;;;;;;;;5030171;28;3240;-57
2023/07/24 07:23:15;;;;;;;;;;;;;;;;;;5043867;28;5154;-55
2023/07/24 07:25:40;;;;;;;;;;;;;;;;;;5028592;28;4680;-55
2023/07/24 07:28:06;;;;;;;;;;;;;;;;;;5051562;28;5116;-55
2023/07/24 07:30:31;;;;;;;;;;;;;;;;;;5031575;28;5021;-56
2023/07/24 07:32:56;;;;;;;;;;;;;;;;;;5048116;28;5027;-54
2023/07/24 07:35:21;;;;;;;;;;;;;;;;;;5047956;28;3235;-54
2023/07/24 07:37:47;;;;;;;;;;;;;;;;;;5047178;28;5868;-56
2023/07/24 07:40:12;;;;;;;;;;;;;;;;;;5047634;28;4879;-57
2023/07/24 07:42:37;;;;;;;;;;;;;;;;;;5048814;28;5053;-55
2023/07/24 07:45:03;;;;;;;;;;;;;;;;;;5048770;28;5111;-54
2023/07/24 07:47:28;;;;;;;;;;;;;;;;;;5049841;28;1148;-55
2023/07/24 07:49:53;;;;;;;;;;;;;;;;;;5049837;28;4983;-54
2023/07/24 07:52:20;;;;;;;;;;;;;;;;;;5047783;28;4989;-53
2023/07/24 07:54:46;;;;;;;;;;;;;;;;;;5049871;28;4463;-54
2023/07/24 07:57:11;;;;;;;;;;;;;;;;;;5048271;28;5162;-55
2023/07/24 07:59:36;;;;;;;;;;;;;;;;;;5050257;28;2143;-54
2023/07/24 08:02:02;;;;;;;;;;;;;;;;;;5028794;28;5123;-57
2023/07/24 08:04:27;;;;;;;;;;;;;;;;;;5046135;28;5096;-56
2023/07/24 08:06:52;;;;;;;;;;;;;;;;;;5049326;28;5144;-56
2023/07/24 08:09:17;;;;;;;;;;;;;;;;;;5049594;28;5224;-56
2023/07/24 08:11:43;;;;;;;;;;;;;;;;;;5046341;28;3248;-59
2023/07/24 08:14:08;;;;;;;;;;;;;;;;;;5042370;28;4887;-59
2023/07/24 08:16:33;;;;;;;;;;;;;;;;;;5044245;28;4795;-60
2023/07/24 08:18:58;;;;;;;;;;;;;;;;;;5045993;28;5285;-60
2023/07/24 08:21:24;;;;;;;;;;;;;;;;;;5048984;28;4974;-61
2023/07/24 08:23:49;;;;;;;;;;;;;;;;;;5027960;28;3324;-61
2023/07/24 08:26:15;;;;;;;;;;;;;;;;;;5041799;28;5057;-61
2023/07/24 08:28:42;;;;;;;;;;;;;;;;;;5050360;28;5169;-61
2023/07/24 08:31:07;;;;;;;;;;;;;;;;;;5048072;28;5154;-62
2023/07/24 08:33:32;;;;;;;;;;;;;;;;;;5048143;28;4867;-61
2023/07/24 08:36:02;;;;;;;;;;;;;;;;;;5048681;28;5383;-61
2023/07/24 08:38:27;;;;;;;;;;;;;;;;;;5049539;28;1046;-61
2023/07/24 08:41:02;;;;;;;;;;;;;;;;;;5047995;28;4998;-61
2023/07/24 08:43:28;;;;;;;;;;;;;;;;;;5048238;28;5106;-60
2023/07/24 08:45:54;;;;;;;;;;;;;;;;;;5052322;28;4616;-60
2023/07/24 08:48:19;;;;;;;;;;;;;;;;;;5048756;28;5044;-60
2023/07/24 08:50:44;;;;;;;;;;;;;;;;;;5048576;28;1314;-61
2023/07/24 08:53:09;;;;;;;;;;;;;;;;;;5025854;28;5185;-60
2023/07/24 08:55:34;;;;;;;;;;;;;;;;;;5030019;28;5056;-59
2023/07/24 08:58:00;;;;;;;;;;;;;;;;;;5029494;28;5028;-59
2023/07/24 09:00:25;;;;;;;;;;;;;;;;;;5047551;28;5144;-59
2023/07/24 09:02:50;;;;;;;;;;;;;;;;;;5042350;28;1987;-58
2023/07/24 09:05:16;;;;;;;;;;;;;;;;;;5042101;28;4937;-56
2023/07/24 09:07:42;;;;;;;;;;;;;;;;;;5048720;28;4791;-55
2023/07/24 09:10:07;;;;;;;;;;;;;;;;;;5047161;28;4639;-55
2023/07/24 09:12:32;;;;;;;;;;;;;;;;;;5026567;28;4913;-53
2023/07/24 09:15:04;;;;;;;;;;;;;;;;;;5046388;28;5327;-57
2023/07/24 09:17:29;;;;;;;;;;;;;;;;;;5046501;28;3164;-58
2023/07/24 09:19:55;;;;;;;;;;;;;;;;;;5043377;28;5032;-57
2023/07/24 09:22:20;;;;;;;;;;;;;;;;;;5028167;28;5383;-54
2023/07/24 09:24:55;;;;;;;;;;;;;;;;;;5040939;28;5342;-52
2023/07/24 09:27:23;;;;;;;;;;;;;;;;;;5045892;28;4535;-54
2023/07/24 09:29:49;;;;;;;;;;;;;;;;;;5040453;28;3484;-56
2023/07/24 09:32:21;;;;;;;;;;;;;;;;;;5064834;28;5056;-58
2023/07/24 09:34:47;;;;;;;;;;;;;;;;;;5064418;28;4694;-60
2023/07/24 09:37:22;;;;;;;;;;;;;;;;;;5065797;28;5694;-64
2023/07/24 09:39:47;;;;;;;;;;;;;;;;;;5063119;28;4977;-62
2023/07/24 09:42:13;;;;;;;;;;;;;;;;;;5061341;28;5070;-61
2023/07/24 09:44:38;;;;;;;;;;;;;;;;;;5063995;28;2803;-64
2023/07/24 09:47:04;;;;;;;;;;;;;;;;;;5066420;28;5423;-62
2023/07/24 09:49:29;;;;;;;;;;;;;;;;;;5066544;28;5022;-68
2023/07/24 09:51:54;;;;;;;;;;;;;;;;;;5065855;28;5512;-61
2023/07/24 09:54:22;;;;;;;;;;;;;;;;;;5048801;28;4623;-62
2023/07/24 09:56:47;;;;;;;;;;;;;;;;;;5049260;28;1116;-59
2023/07/24 09:59:12;;;;;;;;;;;;;;;;;;5049324;28;5029;-58
2023/07/24 10:01:38;;;;;;;;;;;;;;;;;;5045365;28;5097;-60
2023/07/24 10:04:03;;;;;;;;;;;;;;;;;;5066276;28;5045;-61
2023/07/24 10:06:29;;;;;;;;;;;;;;;;;;5042372;28;4517;-60
2023/07/24 10:08:54;;;;;;;;;;;;;;;;;;5045224;28;5025;-61
2023/07/24 10:11:20;;;;;;;;;;;;;;;;;;5046098;28;1065;-61
2023/07/24 10:13:45;;;;;;;;;;;;;;;;;;5048549;28;4841;-61
2023/07/24 10:16:10;;;;;;;;;;;;;;;;;;5048537;28;4677;-61
2023/07/24 10:18:45;;;;;;;;;;;;;;;;;;5064806;28;4519;-60
2023/07/24 10:21:10;;;;;;;;;;;;;;;;;;5047793;28;5744;-65
2023/07/24 10:23:35;;;;;;;;;;;;;;;;;;5059165;28;2253;-62
2023/07/24 10:26:07;;;;;;;;;;;;;;;;;;5068613;28;4877;-62
2023/07/24 10:28:33;;;;;;;;;;;;;;;;;;5066312;28;4868;-60
2023/07/24 10:30:58;;;;;;;;;;;;;;;;;;5057211;28;4879;-62
2023/07/24 10:33:23;;;;;;;;;;;;;;;;;;5066161;28;5005;-62
2023/07/24 10:35:54;;;;;;;;;;;;;;;;;;5064607;28;1116;-66
2023/07/24 10:38:20;;;;;;;;;;;;;;;;;;5063964;28;4930;-64
2023/07/24 10:40:45;;;;;;;;;;;;;;;;;;5066157;28;5006;-62
2023/07/24 10:43:12;;;;;;;;;;;;;;;;;;5066021;28;4977;-65
2023/07/24 10:45:41;;;;;;;;;;;;;;;;;;5062246;28;4993;-59
2023/07/24 10:48:06;;;;;;;;;;;;;;;;;;5066283;28;5181;-59
2023/07/24 10:50:41;;;;;;;;;;;;;;;;;;5065146;28;1092;-59
2023/07/24 10:53:07;;;;;;;;;;;;;;;;;;5062141;28;4446;-57
2023/07/24 10:55:33;;;;;;;;;;;;;;;;;;5065422;28;5041;-58
2023/07/24 10:57:58;;;;;;;;;;;;;;;;;;5066234;28;5132;-61
2023/07/24 11:00:23;;;;;;;;;;;;;;;;;;5041399;28;4481;-63
2023/07/24 11:02:49;;;;;;;;;;;;;;;;;;5060399;28;3286;-57
2023/07/24 11:05:14;;;;;;;;;;;;;;;;;;5039320;28;4967;-61
2023/07/24 11:07:39;;;;;;;;;;;;;;;;;;5060795;28;5140;-60
2023/07/24 11:10:14;;;;;;;;;;;;;;;;;;5066239;28;4843;-59
2023/07/24 11:12:39;;;;;;;;;;;;;;;;;;5066408;28;5074;-60
2023/07/24 11:15:05;;;;;;;;;;;;;;;;;;5062624;28;4920;-57
2023/07/24 11:17:37;;;;;;;;;;;;;;;;;;5066737;28;1097;-58
2023/07/24 11:20:09;;;;;;;;;;;;;;;;;;5064195;28;5331;-59
2023/07/24 11:22:35;;;;;;;;;;;;;;;;;;5045006;28;4539;-59
2023/07/24 11:25:01;;;;;;;;;;;;;;;;;;5060197;28;5006;-57
2023/07/24 11:27:26;;;;;;;;;;;;;;;;;;5069737;28;5089;-58
2023/07/24 11:29:51;;;;;;;;;;;;;;;;;;5067218;28;5126;-57
2023/07/24 11:32:20;;;;;;;;;;;;;;;;;;5047683;28;5118;-58
2023/07/24 11:34:46;;;;;;;;;;;;;;;;;;5068127;28;4664;-69
2023/07/24 11:37:11;;;;;;;;;;;;;;;;;;5037565;28;5135;-51
2023/07/24 11:39:36;;;;;;;;;;;;;;;;;;5049410;28;4698;-49
2023/07/24 11:42:02;;;;;;;;;;;;;;;;;;5067429;28;5050;-51
2023/07/24 11:44:27;;;;;;;;;;;;;;;;;;5069041;28;1906;-48
2023/07/24 11:46:59;;;;;;;;;;;;;;;;;;5065353;28;4678;-49
2023/07/24 11:49:25;;;;;;;;;;;;;;;;;;5068578;28;4513;-50
2023/07/24 11:51:50;;;;;;;;;;;;;;;;;;5067800;28;4475;-50
2023/07/24 11:54:15;;;;;;;;;;;;;;;;;;5066657;28;4972;-58
2023/07/24 11:56:41;;;;;;;;;;;;;;;;;;5065161;28;3282;-61
2023/07/24 11:59:12;;;;;;;;;;;;;;;;;;5063239;28;4472;-60
2023/07/24 12:01:38;;;;;;;;;;;;;;;;;;5063769;28;4472;-60
2023/07/24 12:04:03;;;;;;;;;;;;;;;;;;5051310;28;4635;-57
2023/07/24 12:06:30;;;;;;;;;;;;;;;;;;5069848;28;4498;-55
2023/07/24 12:09:00;;;;;;;;;;;;;;;;;;5049632;28;5013;-54
2023/07/24 12:11:26;;;;;;;;;;;;;;;;;;5067697;28;3211;-59
2023/07/24 12:13:53;;;;;;;;;;;;;;;;;;5043655;28;4681;-56
2023/07/24 12:16:18;;;;;;;;;;;;;;;;;;5065459;28;5085;-56
2023/07/24 12:18:43;;;;;;;;;;;;;;;;;;5042443;28;4565;-56
2023/07/24 12:21:09;;;;;;;;;;;;;;;;;;5066310;28;4482;-57
2023/07/24 12:23:34;;;;;;;;;;;;;;;;;;5032543;28;3341;-57
2023/07/24 12:26:00;;;;;;;;;;;;;;;;;;5063935;28;4749;-56
2023/07/24 12:28:25;;;;;;;;;;;;;;;;;;5047263;28;5078;-56
2023/07/24 12:30:50;;;;;;;;;;;;;;;;;;5067146;28;5014;-57
2023/07/24 12:33:16;;;;;;;;;;;;;;;;;;5069072;28;5035;-55
2023/07/24 12:35:42;;;;;;;;;;;;;;;;;;5068345;28;1287;-58
2023/07/24 12:38:07;;;;;;;;;;;;;;;;;;5047243;28;4571;-56
2023/07/24 12:40:32;;;;;;;;;;;;;;;;;;5045103;28;4563;-57
2023/07/24 12:42:58;;;;;;;;;;;;;;;;;;5049537;28;5077;-57
2023/07/24 12:45:23;;;;;;;;;;;;;;;;;;5066457;28;4948;-57
2023/07/24 12:47:48;;;;;;;;;;;;;;;;;;5060487;28;3379;-57
2023/07/24 12:50:13;;;;;;;;;;;;;;;;;;5066030;28;4875;-57
2023/07/24 12:52:39;;;;;;;;;;;;;;;;;;5065437;28;5098;-57
2023/07/24 12:55:04;;;;;;;;;;;;;;;;;;5063770;28;5038;-57
2023/07/24 12:57:30;;;;;;;;;;;;;;;;;;5067398;28;5038;-57
2023/07/24 12:59:55;;;;;;;;;;;;;;;;;;5066226;28;5065;-57
2023/07/24 13:02:20;;;;;;;;;;;;;;;;;;5067705;28;1997;-57
2023/07/24 13:04:45;;;;;;;;;;;;;;;;;;5064657;28;4852;-56
2023/07/24 13:07:10;;;;;;;;;;;;;;;;;;5067907;28;4810;-56
2023/07/24 13:09:36;;;;;;;;;;;;;;;;;;5067300;28;5075;-59
2023/07/24 13:12:01;;;;;;;;;;;;;;;;;;5060816;28;5177;-54
2023/07/24 13:14:26;;;;;;;;;;;;;;;;;;5066516;28;3072;-56
2023/07/24 13:16:51;;;;;;;;;;;;;;;;;;5048991;28;4961;-59
2023/07/24 13:19:17;;;;;;;;;;;;;;;;;;5066332;28;5015;-56
2023/07/24 13:21:43;;;;;;;;;;;;;;;;;;5062443;28;5116;-59
2023/07/24 13:24:08;;;;;;;;;;;;;;;;;;5065538;28;4997;-60
2023/07/24 13:26:33;;;;;;;;;;;;;;;;;;5066023;28;1341;-58
2023/07/24 13:28:59;;;;;;;;;;;;;;;;;;5066633;28;4954;-60
2023/07/24 13:31:24;;;;;;;;;;;;;;;;;;5063565;28;5152;-57
2023/07/24 13:33:49;;;;;;;;;;;;;;;;;;5060179;28;5100;-56
2023/07/24 13:36:15;;;;;;;;;;;;;;;;;;5064677;28;4522;-59
2023/07/24 13:38:40;;;;;;;;;;;;;;;;;;5068002;28;3327;-56
2023/07/24 13:41:05;;;;;;;;;;;;;;;;;;5067437;28;5106;-57
2023/07/24 13:43:31;;;;;;;;;;;;;;;;;;5063789;28;4643;-59
2023/07/24 13:45:56;;;;;;;;;;;;;;;;;;5059356;28;5032;-58
2023/07/24 13:48:22;;;;;;;;;;;;;;;;;;5064237;28;5099;-54
2023/07/24 13:50:47;;;;;;;;;;;;;;;;;;5065263;28;3659;-54
2023/07/24 13:53:12;;;;;;;;;;;;;;;;;;5046412;28;4518;-56
2023/07/24 13:55:38;;;;;;;;;;;;;;;;;;5056983;28;5019;-54
2023/07/24 13:58:03;;;;;;;;;;;;;;;;;;5058154;28;4911;-56
2023/07/24 14:00:28;;;;;;;;;;;;;;;;;;5064816;28;5093;-58
2023/07/24 14:02:53;;;;;;;;;;;;;;;;;;5046288;28;4603;-53
2023/07/24 14:05:19;;;;;;;;;;;;;;;;;;5062501;28;3703;-55
2023/07/24 14:07:44;;;;;;;;;;;;;;;;;;5060727;28;5253;-57
2023/07/24 14:10:09;;;;;;;;;;;;;;;;;;5063936;28;5095;-55
2023/07/24 14:12:34;;;;;;;;;;;;;;;;;;5063834;28;5197;-53
2023/07/24 14:15:00;;;;;;;;;;;;;;;;;;5059563;28;4843;-54
2023/07/24 14:17:25;;;;;;;;;;;;;;;;;;5065739;28;2093;-55
2023/07/24 14:19:50;;;;;;;;;;;;;;;;;;5064138;28;5112;-55
2023/07/24 14:22:16;;;;;;;;;;;;;;;;;;5062415;28;5044;-55
2023/07/24 14:24:41;;;;;;;;;;;;;;;;;;5063719;28;4848;-55
2023/07/24 14:27:06;;;;;;;;;;;;;;;;;;5066515;28;4619;-54
2023/07/24 14:29:31;;;;;;;;;;;;;;;;;;5065134;28;1348;-55
2023/07/24 14:31:57;;;;;;;;;;;;;;;;;;5063894;28;5029;-55
2023/07/24 14:34:22;;;;;;;;;;;;;;;;;;5063648;28;5153;-55
2023/07/24 14:36:47;;;;;;;;;;;;;;;;;;5067677;28;4482;-55
2023/07/24 14:39:12;;;;;;;;;;;;;;;;;;5048755;28;5195;-55
2023/07/24 14:41:37;;;;;;;;;;;;;;;;;;5067409;28;1062;-55
2023/07/24 14:44:03;;;;;;;;;;;;;;;;;;5065180;28;5054;-55
2023/07/24 14:46:28;;;;;;;;;;;;;;;;;;5066670;28;5088;-55
2023/07/24 14:48:54;;;;;;;;;;;;;;;;;;5066996;28;4958;-54
2023/07/24 14:51:19;;;;;;;;;;;;;;;;;;5043737;28;4885;-55
2023/07/24 14:53:44;;;;;;;;;;;;;;;;;;5048360;28;1476;-55
2023/07/24 14:56:09;;;;;;;;;;;;;;;;;;5068726;28;4932;-55
2023/07/24 14:58:35;;;;;;;;;;;;;;;;;;5070386;28;4444;-55
2023/07/24 15:01:00;;;;;;;;;;;;;;;;;;5070171;28;5123;-55
2023/07/24 15:03:25;;;;;;;;;;;;;;;;;;5052446;28;5171;-55
2023/07/24 15:05:51;;;;;;;;;;;;;;;;;;5070145;28;2271;-55
2023/07/24 15:08:17;;;;;;;;;;;;;;;;;;5068565;28;5052;-55
2023/07/24 15:10:42;;;;;;;;;;;;;;;;;;5069882;28;5005;-55
2023/07/24 15:13:09;;;;;;;;;;;;;;;;;;5070455;28;4959;-55
2023/07/24 15:15:34;;;;;;;;;;;;;;;;;;5076737;28;4956;-55
2023/07/24 15:17:59;;;;;;;;;;;;;;;;;;5069007;28;4955;-54
2023/07/24 15:20:24;;;;;;;;;;;;;;;;;;5070984;28;1148;-55
2023/07/24 15:22:52;;;;;;;;;;;;;;;;;;5064963;28;4574;-55
2023/07/24 15:25:18;;;;;;;;;;;;;;;;;;5068301;28;4942;-54
2023/07/24 15:27:43;;;;;;;;;;;;;;;;;;5070174;28;5026;-55
2023/07/24 15:30:08;;;;;;;;;;;;;;;;;;5065705;28;5072;-54
2023/07/24 15:32:34;;;;;;;;;;;;;;;;;;5070411;28;4897;-55
2023/07/24 15:35:00;;;;;;;;;;;;;;;;;;5068551;28;5100;-55
2023/07/24 15:37:25;;;;;;;;;;;;;;;;;;5069726;28;4916;-55
2023/07/24 15:39:51;;;;;;;;;;;;;;;;;;5069158;28;4903;-55
2023/07/24 15:42:16;;;;;;;;;;;;;;;;;;5068497;28;5017;-55
2023/07/24 15:44:41;;;;;;;;;;;;;;;;;;5070083;28;1120;-54
2023/07/24 15:47:06;;;;;;;;;;;;;;;;;;5069804;28;4909;-55
2023/07/24 15:49:31;;;;;;;;;;;;;;;;;;5070260;28;5029;-54
2023/07/24 15:51:57;;;;;;;;;;;;;;;;;;5069357;28;4410;-54
2023/07/24 15:54:22;;;;;;;;;;;;;;;;;;5048167;28;5050;-55
2023/07/24 15:56:47;;;;;;;;;;;;;;;;;;5068320;28;1105;-54
2023/07/24 15:59:13;;;;;;;;;;;;;;;;;;5069467;28;5034;-54
2023/07/24 16:01:39;;;;;;;;;;;;;;;;;;5069183;28;4936;-55
2023/07/24 16:04:04;;;;;;;;;;;;;;;;;;5068590;28;5083;-54
2023/07/24 16:06:29;;;;;;;;;;;;;;;;;;5069078;28;4434;-54
2023/07/24 16:08:54;;;;;;;;;;;;;;;;;;5051027;28;4658;-55
2023/07/24 16:11:20;;;;;;;;;;;;;;;;;;5069737;28;1183;-54
2023/07/24 16:13:45;;;;;;;;;;;;;;;;;;5068807;28;5006;-55
2023/07/24 16:16:10;;;;;;;;;;;;;;;;;;5069124;28;4996;-54
2023/07/24 16:18:35;;;;;;;;;;;;;;;;;;5067611;28;5152;-54
2023/07/24 16:21:01;;;;;;;;;;;;;;;;;;5068873;28;4561;-54
2023/07/24 16:23:26;;;;;;;;;;;;;;;;;;5067095;28;1946;-54
2023/07/24 16:25:51;;;;;;;;;;;;;;;;;;5067109;28;5011;-54
2023/07/24 16:28:17;;;;;;;;;;;;;;;;;;5066656;28;4986;-55
2023/07/24 16:30:42;;;;;;;;;;;;;;;;;;5066495;28;5263;-54
2023/07/24 16:33:07;;;;;;;;;;;;;;;;;;5048946;28;5093;-55
2023/07/24 16:35:33;;;;;;;;;;;;;;;;;;5059427;28;3280;-55
2023/07/24 16:37:58;;;;;;;;;;;;;;;;;;5072897;28;4933;-54
2023/07/24 16:40:23;;;;;;;;;;;;;;;;;;5068231;28;5186;-55
2023/07/24 16:42:48;;;;;;;;;;;;;;;;;;5068552;28;4961;-55
2023/07/24 16:45:13;;;;;;;;;;;;;;;;;;5067630;28;4836;-55
2023/07/24 16:47:39;;;;;;;;;;;;;;;;;;5065896;28;3208;-56
2023/07/24 16:50:04;;;;;;;;;;;;;;;;;;5064504;28;5310;-56
2023/07/24 16:52:30;;;;;;;;;;;;;;;;;;5065587;28;5340;-55